sensor_id;sensor_type;location;lat;lon;timestamp;pressure;altitude;pressure_sealevel;temperature;humidity
62055;BME280;48653;51.742;-1.256;2024-01-16T00:03:47;100648.06;;;-0.80;41.61
62055;BME280;48653;51.742;-1.256;2024-01-16T00:06:10;100651.13;;;-0.59;41.44
62055;BME280;48653;51.742;-1.256;2024-01-16T00:08:37;100651.71;;;-0.72;41.42
62055;BME280;48653;51.742;-1.256;2024-01-16T00:11:01;100650.18;;;-0.81;42.22
62055;BME280;48653;51.742;-1.256;2024-01-16T00:13:28;100645.51;;;-0.50;41.75
62055;BME280;48653;51.742;-1.256;2024-01-16T00:15:52;100642.07;;;-0.46;42.08
62055;BME280;48653;51.742;-1.256;2024-01-16T00:18:19;100640.43;;;-0.79;42.28
62055;BME280;48653;51.742;-1.256;2024-01-16T00:20:44;100639.45;;;-0.42;41.88
62055;BME280;48653;51.742;-1.256;2024-01-16T00:23:09;100636.42;;;-0.61;42.19
62055;BME280;48653;51.742;-1.256;2024-01-16T00:25:34;100628.50;;;-0.70;41.72
62055;BME280;48653;51.742;-1.256;2024-01-16T00:28:01;100622.69;;;-0.50;42.17
62055;BME280;48653;51.742;-1.256;2024-01-16T00:30:31;100620.59;;;-0.44;42.12
62055;BME280;48653;51.742;-1.256;2024-01-16T00:32:53;100618.02;;;-0.42;42.02
62055;BME280;48653;51.742;-1.256;2024-01-16T00:35:23;100623.34;;;-0.48;42.13
62055;BME280;48653;51.742;-1.256;2024-01-16T00:37:42;100624.83;;;-0.48;42.20
62055;BME280;48653;51.742;-1.256;2024-01-16T00:40:09;100621.72;;;-1.13;42.03
62055;BME280;48653;51.742;-1.256;2024-01-16T00:42:33;100613.98;;;-0.28;41.40
62055;BME280;48653;51.742;-1.256;2024-01-16T00:44:58;100607.84;;;-0.57;41.61
62055;BME280;48653;51.742;-1.256;2024-01-16T00:47:25;100603.72;;;-0.87;42.09
62055;BME280;48653;51.742;-1.256;2024-01-16T00:49:49;100599.47;;;-0.61;42.27
62055;BME280;48653;51.742;-1.256;2024-01-16T00:52:15;100594.00;;;-0.78;42.76
62055;BME280;48653;51.742;-1.256;2024-01-16T00:54:40;100593.55;;;-0.33;43.21
62055;BME280;48653;51.742;-1.256;2024-01-16T00:57:05;100597.92;;;-0.93;43.79
62055;BME280;48653;51.742;-1.256;2024-01-16T00:59:31;100603.08;;;-0.89;44.70
62055;BME280;48653;51.742;-1.256;2024-01-16T01:01:56;100602.21;;;-0.72;43.62
62055;BME280;48653;51.742;-1.256;2024-01-16T01:04:22;100599.45;;;-0.75;44.19
62055;BME280;48653;51.742;-1.256;2024-01-16T01:06:47;100595.75;;;-0.68;44.00
62055;BME280;48653;51.742;-1.256;2024-01-16T01:09:12;100597.21;;;-0.79;43.93
62055;BME280;48653;51.742;-1.256;2024-01-16T01:11:38;100598.51;;;-1.28;44.56
62055;BME280;48653;51.742;-1.256;2024-01-16T01:14:09;100597.47;;;-1.01;44.02
62055;BME280;48653;51.742;-1.256;2024-01-16T01:18:55;100595.37;;;-0.59;43.85
62055;BME280;48653;51.742;-1.256;2024-01-16T01:21:21;100592.33;;;-0.29;43.88
62055;BME280;48653;51.742;-1.256;2024-01-16T01:23:46;100593.45;;;-0.87;43.49
62055;BME280;48653;51.742;-1.256;2024-01-16T01:26:11;100591.68;;;-0.88;43.89
62055;BME280;48653;51.742;-1.256;2024-01-16T01:28:36;100592.78;;;-0.99;44.28
62055;BME280;48653;51.742;-1.256;2024-01-16T01:31:02;100591.76;;;-1.66;44.63
62055;BME280;48653;51.742;-1.256;2024-01-16T01:33:27;100594.35;;;-1.39;44.26
62055;BME280;48653;51.742;-1.256;2024-01-16T01:35:52;100591.30;;;-1.27;44.49
62055;BME280;48653;51.742;-1.256;2024-01-16T01:38:18;100590.32;;;-1.09;44.34
62055;BME280;48653;51.742;-1.256;2024-01-16T01:40:44;100587.03;;;-1.02;44.28
62055;BME280;48653;51.742;-1.256;2024-01-16T01:43:18;100589.63;;;-1.25;44.20
62055;BME280;48653;51.742;-1.256;2024-01-16T01:45:35;100592.62;;;-1.18;44.07
62055;BME280;48653;51.742;-1.256;2024-01-16T01:47:59;100591.64;;;-1.26;43.70
62055;BME280;48653;51.742;-1.256;2024-01-16T01:50:25;100590.28;;;-0.95;43.57
62055;BME280;48653;51.742;-1.256;2024-01-16T01:52:50;100586.52;;;-0.85;43.20
62055;BME280;48653;51.742;-1.256;2024-01-16T01:55:15;100585.88;;;-1.36;43.37
62055;BME280;48653;51.742;-1.256;2024-01-16T01:57:42;100584.79;;;-1.23;43.54
62055;BME280;48653;51.742;-1.256;2024-01-16T02:00:07;100579.10;;;-1.12;44.21
62055;BME280;48653;51.742;-1.256;2024-01-16T02:02:32;100579.94;;;-1.33;44.21
62055;BME280;48653;51.742;-1.256;2024-01-16T02:04:57;100576.98;;;-1.57;44.51
62055;BME280;48653;51.742;-1.256;2024-01-16T02:07:22;100574.41;;;-1.63;44.29
62055;BME280;48653;51.742;-1.256;2024-01-16T02:09:49;100575.47;;;-1.39;44.54
62055;BME280;48653;51.742;-1.256;2024-01-16T02:12:14;100574.66;;;-1.52;44.29
62055;BME280;48653;51.742;-1.256;2024-01-16T02:14:39;100575.56;;;-1.58;44.03
62055;BME280;48653;51.742;-1.256;2024-01-16T02:17:05;100579.39;;;-1.44;43.98
62055;BME280;48653;51.742;-1.256;2024-01-16T02:19:30;100576.90;;;-1.25;43.72
62055;BME280;48653;51.742;-1.256;2024-01-16T02:21:59;100580.81;;;-1.34;43.64
62055;BME280;48653;51.742;-1.256;2024-01-16T02:24:22;100583.68;;;-1.15;43.51
62055;BME280;48653;51.742;-1.256;2024-01-16T02:26:47;100581.27;;;-1.14;42.88
62055;BME280;48653;51.742;-1.256;2024-01-16T02:29:12;100577.39;;;-1.21;43.53
62055;BME280;48653;51.742;-1.256;2024-01-16T02:31:38;100578.54;;;-0.88;43.11
62055;BME280;48653;51.742;-1.256;2024-01-16T02:34:04;100576.32;;;-1.17;43.76
62055;BME280;48653;51.742;-1.256;2024-01-16T02:36:31;100579.70;;;-1.03;43.47
62055;BME280;48653;51.742;-1.256;2024-01-16T02:38:59;100579.94;;;-1.08;43.36
62055;BME280;48653;51.742;-1.256;2024-01-16T02:41:20;100575.91;;;-1.10;43.50
62055;BME280;48653;51.742;-1.256;2024-01-16T02:43:46;100567.84;;;-0.96;43.26
62055;BME280;48653;51.742;-1.256;2024-01-16T02:46:10;100564.99;;;-0.80;42.90
62055;BME280;48653;51.742;-1.256;2024-01-16T02:48:37;100564.64;;;-1.12;43.21
62055;BME280;48653;51.742;-1.256;2024-01-16T02:51:01;100562.73;;;-0.93;43.45
62055;BME280;48653;51.742;-1.256;2024-01-16T02:53:27;100563.04;;;-1.33;43.80
62055;BME280;48653;51.742;-1.256;2024-01-16T02:55:53;100553.90;;;-1.28;43.88
62055;BME280;48653;51.742;-1.256;2024-01-16T02:58:18;100552.64;;;-1.18;44.24
62055;BME280;48653;51.742;-1.256;2024-01-16T03:00:44;100553.45;;;-1.19;44.12
62055;BME280;48653;51.742;-1.256;2024-01-16T03:03:09;100551.36;;;-1.44;44.41
62055;BME280;48653;51.742;-1.256;2024-01-16T03:05:35;100546.26;;;-1.46;44.54
62055;BME280;48653;51.742;-1.256;2024-01-16T03:08:00;100544.23;;;-1.24;43.99
62055;BME280;48653;51.742;-1.256;2024-01-16T03:10:26;100543.13;;;-1.46;44.56
62055;BME280;48653;51.742;-1.256;2024-01-16T03:12:51;100545.61;;;-1.37;44.50
62055;BME280;48653;51.742;-1.256;2024-01-16T03:15:16;100543.31;;;-1.28;44.69
62055;BME280;48653;51.742;-1.256;2024-01-16T03:17:43;100539.88;;;-1.61;46.04
62055;BME280;48653;51.742;-1.256;2024-01-16T03:20:08;100541.52;;;-2.37;46.65
62055;BME280;48653;51.742;-1.256;2024-01-16T03:22:33;100542.78;;;-1.15;45.04
62055;BME280;48653;51.742;-1.256;2024-01-16T03:24:58;100535.83;;;-1.78;45.87
62055;BME280;48653;51.742;-1.256;2024-01-16T03:27:24;100532.63;;;-1.99;46.12
62055;BME280;48653;51.742;-1.256;2024-01-16T03:29:49;100536.73;;;-1.56;46.20
62055;BME280;48653;51.742;-1.256;2024-01-16T03:32:15;100536.92;;;-1.29;45.91
62055;BME280;48653;51.742;-1.256;2024-01-16T03:34:40;100535.21;;;-1.16;45.79
62055;BME280;48653;51.742;-1.256;2024-01-16T03:37:06;100539.36;;;-1.44;44.93
62055;BME280;48653;51.742;-1.256;2024-01-16T03:39:36;100539.73;;;-1.11;45.50
62055;BME280;48653;51.742;-1.256;2024-01-16T03:41:56;100537.18;;;-0.89;45.60
62055;BME280;48653;51.742;-1.256;2024-01-16T03:44:22;100529.68;;;-1.39;45.96
62055;BME280;48653;51.742;-1.256;2024-01-16T03:46:48;100524.97;;;-2.24;47.06
62055;BME280;48653;51.742;-1.256;2024-01-16T03:49:13;100521.35;;;-1.72;46.11
62055;BME280;48653;51.742;-1.256;2024-01-16T03:51:38;100516.94;;;-1.33;46.13
62055;BME280;48653;51.742;-1.256;2024-01-16T03:54:04;100508.69;;;-1.65;45.77
62055;BME280;48653;51.742;-1.256;2024-01-16T03:56:29;100504.92;;;-1.22;45.03
62055;BME280;48653;51.742;-1.256;2024-01-16T03:58:55;100502.22;;;-1.52;45.47
62055;BME280;48653;51.742;-1.256;2024-01-16T04:01:30;100502.90;;;-1.49;45.44
62055;BME280;48653;51.742;-1.256;2024-01-16T04:03:46;100493.21;;;-1.28;45.27
62055;BME280;48653;51.742;-1.256;2024-01-16T04:06:15;100489.96;;;-1.28;44.67
62055;BME280;48653;51.742;-1.256;2024-01-16T04:08:37;100487.06;;;-1.32;44.79
62055;BME280;48653;51.742;-1.256;2024-01-16T04:11:03;100482.78;;;-1.61;45.36
62055;BME280;48653;51.742;-1.256;2024-01-16T04:13:27;100482.32;;;-1.26;45.14
62055;BME280;48653;51.742;-1.256;2024-01-16T04:15:52;100482.30;;;-1.49;45.82
62055;BME280;48653;51.742;-1.256;2024-01-16T04:18:18;100480.61;;;-1.48;45.07
62055;BME280;48653;51.742;-1.256;2024-01-16T04:20:44;100482.06;;;-1.40;44.98
62055;BME280;48653;51.742;-1.256;2024-01-16T04:23:09;100481.81;;;-1.36;45.09
62055;BME280;48653;51.742;-1.256;2024-01-16T04:25:35;100479.30;;;-1.36;45.40
62055;BME280;48653;51.742;-1.256;2024-01-16T04:28:00;100477.52;;;-1.47;45.12
62055;BME280;48653;51.742;-1.256;2024-01-16T04:30:26;100474.09;;;-1.52;45.58
62055;BME280;48653;51.742;-1.256;2024-01-16T04:32:54;100470.66;;;-1.66;45.43
62055;BME280;48653;51.742;-1.256;2024-01-16T04:35:18;100470.83;;;-1.45;45.23
62055;BME280;48653;51.742;-1.256;2024-01-16T04:37:42;100471.28;;;-1.43;45.12
62055;BME280;48653;51.742;-1.256;2024-01-16T04:40:08;100474.09;;;-1.34;45.38
62055;BME280;48653;51.742;-1.256;2024-01-16T04:42:33;100472.67;;;-1.33;44.79
62055;BME280;48653;51.742;-1.256;2024-01-16T04:44:58;100463.11;;;-1.44;45.88
62055;BME280;48653;51.742;-1.256;2024-01-16T04:47:23;100462.85;;;-1.75;45.91
62055;BME280;48653;51.742;-1.256;2024-01-16T04:49:49;100465.88;;;-1.21;45.06
62055;BME280;48653;51.742;-1.256;2024-01-16T04:52:14;100457.40;;;-1.62;45.53
62055;BME280;48653;51.742;-1.256;2024-01-16T04:54:40;100456.31;;;-1.09;45.68
62055;BME280;48653;51.742;-1.256;2024-01-16T04:57:06;100447.74;;;-1.32;45.62
62055;BME280;48653;51.742;-1.256;2024-01-16T04:59:31;100444.44;;;-1.34;45.73
62055;BME280;48653;51.742;-1.256;2024-01-16T05:01:56;100445.43;;;-1.21;45.55
62055;BME280;48653;51.742;-1.256;2024-01-16T05:04:22;100439.00;;;-2.12;46.42
62055;BME280;48653;51.742;-1.256;2024-01-16T05:06:50;100433.68;;;-1.31;45.44
62055;BME280;48653;51.742;-1.256;2024-01-16T05:09:13;100428.59;;;-1.29;44.97
62055;BME280;48653;51.742;-1.256;2024-01-16T05:11:39;100427.22;;;-1.64;45.84
62055;BME280;48653;51.742;-1.256;2024-01-16T05:14:04;100428.19;;;-1.17;45.94
62055;BME280;48653;51.742;-1.256;2024-01-16T05:16:30;100427.59;;;-1.40;45.48
62055;BME280;48653;51.742;-1.256;2024-01-16T05:18:55;100424.11;;;-1.09;44.68
62055;BME280;48653;51.742;-1.256;2024-01-16T05:21:21;100416.38;;;-1.59;46.19
62055;BME280;48653;51.742;-1.256;2024-01-16T05:23:47;100412.84;;;-1.27;45.69
62055;BME280;48653;51.742;-1.256;2024-01-16T05:26:13;100412.27;;;-1.18;44.84
62055;BME280;48653;51.742;-1.256;2024-01-16T05:28:39;100409.51;;;-1.32;45.49
62055;BME280;48653;51.742;-1.256;2024-01-16T05:31:04;100404.57;;;-0.90;45.19
62055;BME280;48653;51.742;-1.256;2024-01-16T05:33:31;100405.16;;;-1.49;45.41
62055;BME280;48653;51.742;-1.256;2024-01-16T05:35:57;100402.50;;;-1.42;45.45
62055;BME280;48653;51.742;-1.256;2024-01-16T05:38:23;100401.88;;;-1.37;45.44
62055;BME280;48653;51.742;-1.256;2024-01-16T05:40:47;100402.72;;;-1.25;45.52
62055;BME280;48653;51.742;-1.256;2024-01-16T05:43:12;100396.44;;;-1.21;44.92
62055;BME280;48653;51.742;-1.256;2024-01-16T05:45:38;100400.40;;;-0.84;44.90
62055;BME280;48653;51.742;-1.256;2024-01-16T05:48:04;100403.73;;;-0.84;44.49
62055;BME280;48653;51.742;-1.256;2024-01-16T05:50:29;100402.99;;;-0.77;45.15
62055;BME280;48653;51.742;-1.256;2024-01-16T05:52:54;100405.27;;;-1.04;45.05
62055;BME280;48653;51.742;-1.256;2024-01-16T05:55:20;100401.84;;;-0.75;44.98
62055;BME280;48653;51.742;-1.256;2024-01-16T05:57:45;100399.51;;;-0.76;45.20
62055;BME280;48653;51.742;-1.256;2024-01-16T06:00:13;100397.96;;;-0.54;44.72
62055;BME280;48653;51.742;-1.256;2024-01-16T06:02:37;100389.50;;;-0.47;44.59
62055;BME280;48653;51.742;-1.256;2024-01-16T06:05:03;100386.20;;;-0.95;44.59
62055;BME280;48653;51.742;-1.256;2024-01-16T06:07:28;100385.46;;;-0.50;44.37
62055;BME280;48653;51.742;-1.256;2024-01-16T06:12:19;100384.03;;;-1.03;44.55
62055;BME280;48653;51.742;-1.256;2024-01-16T06:14:45;100388.78;;;-0.90;44.61
62055;BME280;48653;51.742;-1.256;2024-01-16T06:17:10;100386.65;;;-1.12;44.97
62055;BME280;48653;51.742;-1.256;2024-01-16T06:19:35;100390.30;;;-0.68;45.04
62055;BME280;48653;51.742;-1.256;2024-01-16T06:22:05;100395.38;;;-0.98;44.65
62055;BME280;48653;51.742;-1.256;2024-01-16T06:24:27;100400.19;;;-0.36;44.10
62055;BME280;48653;51.742;-1.256;2024-01-16T06:26:52;100401.17;;;-0.43;44.48
62055;BME280;48653;51.742;-1.256;2024-01-16T06:29:18;100400.68;;;-0.76;44.08
62055;BME280;48653;51.742;-1.256;2024-01-16T06:31:43;100399.43;;;-0.65;43.46
62055;BME280;48653;51.742;-1.256;2024-01-16T06:34:08;100391.78;;;-0.18;42.98
62055;BME280;48653;51.742;-1.256;2024-01-16T06:36:33;100396.36;;;-0.81;43.29
62055;BME280;48653;51.742;-1.256;2024-01-16T06:39:00;100394.63;;;-0.42;43.21
62055;BME280;48653;51.742;-1.256;2024-01-16T06:41:25;100395.68;;;-0.36;43.51
62055;BME280;48653;51.742;-1.256;2024-01-16T06:43:50;100389.00;;;-0.18;42.99
62055;BME280;48653;51.742;-1.256;2024-01-16T06:46:16;100383.40;;;-0.34;43.51
62055;BME280;48653;51.742;-1.256;2024-01-16T06:48:40;100377.22;;;-0.06;43.17
62055;BME280;48653;51.742;-1.256;2024-01-16T06:51:06;100382.14;;;-0.15;43.85
62055;BME280;48653;51.742;-1.256;2024-01-16T06:53:31;100379.81;;;-0.31;44.14
62055;BME280;48653;51.742;-1.256;2024-01-16T06:55:57;100380.65;;;-0.32;44.29
62055;BME280;48653;51.742;-1.256;2024-01-16T06:58:23;100378.36;;;0.16;44.17
62055;BME280;48653;51.742;-1.256;2024-01-16T07:00:48;100376.89;;;-0.58;45.03
62055;BME280;48653;51.742;-1.256;2024-01-16T07:03:14;100372.00;;;-0.56;44.60
62055;BME280;48653;51.742;-1.256;2024-01-16T07:05:39;100371.11;;;-0.37;44.66
62055;BME280;48653;51.742;-1.256;2024-01-16T07:08:05;100365.87;;;-0.30;44.75
62055;BME280;48653;51.742;-1.256;2024-01-16T07:10:30;100367.43;;;-0.36;44.48
62055;BME280;48653;51.742;-1.256;2024-01-16T07:12:55;100369.84;;;-0.41;44.68
62055;BME280;48653;51.742;-1.256;2024-01-16T07:17:50;100367.29;;;-0.88;45.12
62055;BME280;48653;51.742;-1.256;2024-01-16T07:20:12;100360.42;;;-0.19;44.34
62055;BME280;48653;51.742;-1.256;2024-01-16T07:22:37;100360.36;;;-0.11;44.96
62055;BME280;48653;51.742;-1.256;2024-01-16T07:25:03;100358.56;;;-0.55;45.80
62055;BME280;48653;51.742;-1.256;2024-01-16T07:27:28;100352.09;;;-0.36;45.69
62055;BME280;48653;51.742;-1.256;2024-01-16T07:29:53;100353.25;;;-0.20;45.87
62055;BME280;48653;51.742;-1.256;2024-01-16T07:32:18;100347.53;;;-0.14;45.52
62055;BME280;48653;51.742;-1.256;2024-01-16T07:34:44;100347.50;;;0.00;45.75
62055;BME280;48653;51.742;-1.256;2024-01-16T07:37:10;100343.89;;;-0.09;45.32
62055;BME280;48653;51.742;-1.256;2024-01-16T07:39:35;100341.73;;;-0.30;45.34
62055;BME280;48653;51.742;-1.256;2024-01-16T07:42:01;100342.70;;;-0.19;45.34
62055;BME280;48653;51.742;-1.256;2024-01-16T07:44:26;100337.69;;;-0.43;46.09
62055;BME280;48653;51.742;-1.256;2024-01-16T07:46:52;100333.55;;;0.17;45.16
62055;BME280;48653;51.742;-1.256;2024-01-16T07:49:18;100334.20;;;0.23;45.20
62055;BME280;48653;51.742;-1.256;2024-01-16T07:51:43;100338.96;;;-0.05;45.36
62055;BME280;48653;51.742;-1.256;2024-01-16T07:54:10;100343.46;;;-0.02;45.42
62055;BME280;48653;51.742;-1.256;2024-01-16T07:56:34;100342.39;;;0.08;45.33
62055;BME280;48653;51.742;-1.256;2024-01-16T07:59:00;100336.39;;;-0.02;45.56
62055;BME280;48653;51.742;-1.256;2024-01-16T08:01:26;100333.57;;;0.10;44.90
62055;BME280;48653;51.742;-1.256;2024-01-16T08:03:51;100328.81;;;0.85;44.10
62055;BME280;48653;51.742;-1.256;2024-01-16T08:06:17;100332.39;;;0.32;44.82
62055;BME280;48653;51.742;-1.256;2024-01-16T08:08:42;100331.26;;;-0.00;45.21
62055;BME280;48653;51.742;-1.256;2024-01-16T08:11:07;100328.09;;;0.26;44.86
62055;BME280;48653;51.742;-1.256;2024-01-16T08:13:34;100324.80;;;0.06;45.44
62055;BME280;48653;51.742;-1.256;2024-01-16T08:15:59;100324.91;;;0.14;45.18
62055;BME280;48653;51.742;-1.256;2024-01-16T08:18:26;100319.56;;;0.04;45.43
62055;BME280;48653;51.742;-1.256;2024-01-16T08:20:50;100319.91;;;0.54;44.51
62055;BME280;48653;51.742;-1.256;2024-01-16T08:23:16;100315.15;;;0.20;45.14
62055;BME280;48653;51.742;-1.256;2024-01-16T08:25:41;100305.79;;;0.39;44.57
62055;BME280;48653;51.742;-1.256;2024-01-16T08:28:07;100303.04;;;0.14;44.19
62055;BME280;48653;51.742;-1.256;2024-01-16T08:30:32;100301.42;;;0.72;43.37
62055;BME280;48653;51.742;-1.256;2024-01-16T08:32:58;100300.39;;;1.52;41.53
62055;BME280;48653;51.742;-1.256;2024-01-16T08:35:22;100298.49;;;0.92;43.09
62055;BME280;48653;51.742;-1.256;2024-01-16T08:37:50;100298.40;;;0.41;43.92
62055;BME280;48653;51.742;-1.256;2024-01-16T08:40:14;100295.82;;;0.28;43.98
62055;BME280;48653;51.742;-1.256;2024-01-16T08:42:39;100291.26;;;0.31;43.78
62055;BME280;48653;51.742;-1.256;2024-01-16T08:45:05;100293.43;;;0.59;43.48
62055;BME280;48653;51.742;-1.256;2024-01-16T08:47:30;100293.33;;;0.75;43.69
62055;BME280;48653;51.742;-1.256;2024-01-16T08:49:56;100294.44;;;0.82;44.15
62055;BME280;48653;51.742;-1.256;2024-01-16T08:52:20;100290.61;;;0.83;43.24
62055;BME280;48653;51.742;-1.256;2024-01-16T08:54:47;100288.03;;;0.51;44.35
62055;BME280;48653;51.742;-1.256;2024-01-16T08:59:35;100286.59;;;0.89;42.31
62055;BME280;48653;51.742;-1.256;2024-01-16T09:02:02;100287.15;;;0.93;43.06
62055;BME280;48653;51.742;-1.256;2024-01-16T09:04:26;100284.80;;;1.62;41.02
62055;BME280;48653;51.742;-1.256;2024-01-16T09:06:52;100286.33;;;0.87;42.26
62055;BME280;48653;51.742;-1.256;2024-01-16T09:09:18;100290.29;;;1.30;42.06
62055;BME280;48653;51.742;-1.256;2024-01-16T09:11:43;100290.04;;;1.45;41.27
62055;BME280;48653;51.742;-1.256;2024-01-16T09:14:08;100289.40;;;1.21;40.53
62055;BME280;48653;51.742;-1.256;2024-01-16T09:16:33;100288.33;;;1.39;42.66
62055;BME280;48653;51.742;-1.256;2024-01-16T09:18:59;100286.59;;;1.50;41.88
62055;BME280;48653;51.742;-1.256;2024-01-16T09:21:25;100284.52;;;0.94;43.74
62055;BME280;48653;51.742;-1.256;2024-01-16T09:23:50;100281.94;;;1.72;42.06
62055;BME280;48653;51.742;-1.256;2024-01-16T09:26:16;100279.01;;;1.14;41.97
62055;BME280;48653;51.742;-1.256;2024-01-16T09:28:40;100274.65;;;0.87;42.39
62055;BME280;48653;51.742;-1.256;2024-01-16T09:31:06;100276.10;;;1.24;42.56
62055;BME280;48653;51.742;-1.256;2024-01-16T09:33:33;100274.16;;;1.51;42.47
62055;BME280;48653;51.742;-1.256;2024-01-16T09:35:59;100270.63;;;0.60;43.47
62055;BME280;48653;51.742;-1.256;2024-01-16T09:38:24;100271.43;;;1.23;43.27
62055;BME280;48653;51.742;-1.256;2024-01-16T09:40:50;100271.88;;;1.17;43.17
62055;BME280;48653;51.742;-1.256;2024-01-16T09:43:15;100268.08;;;1.04;43.02
62055;BME280;48653;51.742;-1.256;2024-01-16T09:45:41;100270.57;;;0.16;44.56
62055;BME280;48653;51.742;-1.256;2024-01-16T09:48:08;100270.48;;;0.40;44.97
62055;BME280;48653;51.742;-1.256;2024-01-16T09:50:33;100270.43;;;0.90;44.36
62055;BME280;48653;51.742;-1.256;2024-01-16T09:52:58;100270.37;;;0.69;44.31
62055;BME280;48653;51.742;-1.256;2024-01-16T09:55:23;100270.29;;;0.77;44.14
62055;BME280;48653;51.742;-1.256;2024-01-16T09:57:52;100266.28;;;0.93;43.66
62055;BME280;48653;51.742;-1.256;2024-01-16T10:00:15;100263.59;;;1.34;42.55
62055;BME280;48653;51.742;-1.256;2024-01-16T10:02:41;100258.49;;;0.72;43.46
62055;BME280;48653;51.742;-1.256;2024-01-16T10:05:06;100262.72;;;1.12;43.07
62055;BME280;48653;51.742;-1.256;2024-01-16T10:07:31;100260.01;;;1.52;42.71
62055;BME280;48653;51.742;-1.256;2024-01-16T10:09:56;100256.38;;;1.61;42.59
62055;BME280;48653;51.742;-1.256;2024-01-16T10:12:23;100251.71;;;1.78;42.42
62055;BME280;48653;51.742;-1.256;2024-01-16T10:14:48;100250.75;;;1.73;42.23
62055;BME280;48653;51.742;-1.256;2024-01-16T10:17:13;100252.34;;;1.47;42.54
62055;BME280;48653;51.742;-1.256;2024-01-16T10:19:49;100246.99;;;1.33;43.29
62055;BME280;48653;51.742;-1.256;2024-01-16T10:22:07;100245.31;;;1.76;43.19
62055;BME280;48653;51.742;-1.256;2024-01-16T10:24:30;100241.06;;;2.15;41.64
62055;BME280;48653;51.742;-1.256;2024-01-16T10:27:01;100236.50;;;1.95;42.31
62055;BME280;48653;51.742;-1.256;2024-01-16T10:29:21;100230.41;;;2.49;40.96
62055;BME280;48653;51.742;-1.256;2024-01-16T10:31:46;100230.33;;;2.50;41.21
62055;BME280;48653;51.742;-1.256;2024-01-16T10:34:20;100232.95;;;1.76;41.96
62055;BME280;48653;51.742;-1.256;2024-01-16T10:36:38;100233.56;;;2.37;41.73
62055;BME280;48653;51.742;-1.256;2024-01-16T10:39:03;100230.51;;;2.40;41.71
62055;BME280;48653;51.742;-1.256;2024-01-16T10:41:27;100227.60;;;2.42;41.18
62055;BME280;48653;51.742;-1.256;2024-01-16T10:44:03;100222.21;;;2.50;41.90
62055;BME280;48653;51.742;-1.256;2024-01-16T10:46:18;100223.61;;;2.81;41.97
62055;BME280;48653;51.742;-1.256;2024-01-16T10:48:45;100221.01;;;2.23;41.78
62055;BME280;48653;51.742;-1.256;2024-01-16T10:51:10;100219.43;;;2.10;43.06
62055;BME280;48653;51.742;-1.256;2024-01-16T10:53:34;100214.46;;;3.02;41.80
62055;BME280;48653;51.742;-1.256;2024-01-16T10:56:00;100214.80;;;2.73;41.46
62055;BME280;48653;51.742;-1.256;2024-01-16T10:58:25;100213.17;;;1.95;42.85
62055;BME280;48653;51.742;-1.256;2024-01-16T11:00:52;100207.91;;;2.43;42.31
62055;BME280;48653;51.742;-1.256;2024-01-16T11:03:18;100207.93;;;2.50;42.47
62055;BME280;48653;51.742;-1.256;2024-01-16T11:05:40;100204.99;;;2.57;42.07
62055;BME280;48653;51.742;-1.256;2024-01-16T11:08:06;100203.31;;;3.13;41.05
62055;BME280;48653;51.742;-1.256;2024-01-16T11:10:31;100202.18;;;2.82;41.91
62055;BME280;48653;51.742;-1.256;2024-01-16T11:13:00;100194.51;;;3.30;41.29
62055;BME280;48653;51.742;-1.256;2024-01-16T11:15:22;100192.36;;;3.43;40.94
62055;BME280;48653;51.742;-1.256;2024-01-16T11:17:47;100192.69;;;3.39;40.42
62055;BME280;48653;51.742;-1.256;2024-01-16T11:20:13;100188.13;;;3.46;40.90
62055;BME280;48653;51.742;-1.256;2024-01-16T11:34:53;100181.41;;;3.65;41.56
62055;BME280;48653;51.742;-1.256;2024-01-16T11:37:09;100177.62;;;3.68;41.26
62055;BME280;48653;51.742;-1.256;2024-01-16T11:39:34;100172.89;;;3.71;41.25
62055;BME280;48653;51.742;-1.256;2024-01-16T11:42:00;100161.21;;;4.37;39.63
62055;BME280;48653;51.742;-1.256;2024-01-16T11:44:38;100151.53;;;5.47;39.02
62055;BME280;48653;51.742;-1.256;2024-01-16T11:47:00;100144.98;;;5.95;37.27
62055;BME280;48653;51.742;-1.256;2024-01-16T11:54:08;100146.89;;;6.55;37.24
62055;BME280;48653;51.742;-1.256;2024-01-16T11:59:07;100143.50;;;7.21;36.36
62055;BME280;48653;51.742;-1.256;2024-01-16T12:01:23;100137.96;;;7.62;35.59
62055;BME280;48653;51.742;-1.256;2024-01-16T12:06:17;100123.71;;;8.53;33.52
62055;BME280;48653;51.742;-1.256;2024-01-16T12:08:38;100117.23;;;9.00;33.41
62055;BME280;48653;51.742;-1.256;2024-01-16T12:11:04;100110.98;;;9.01;33.40
62055;BME280;48653;51.742;-1.256;2024-01-16T12:13:30;100106.99;;;9.67;32.17
62055;BME280;48653;51.742;-1.256;2024-01-16T12:16:00;100100.68;;;10.06;32.20
62055;BME280;48653;51.742;-1.256;2024-01-16T12:18:20;100099.14;;;9.70;31.91
62055;BME280;48653;51.742;-1.256;2024-01-16T12:20:47;100092.97;;;8.65;32.82
62055;BME280;48653;51.742;-1.256;2024-01-16T12:23:11;100088.51;;;8.47;32.81
62055;BME280;48653;51.742;-1.256;2024-01-16T12:25:37;100084.34;;;9.63;32.39
62055;BME280;48653;51.742;-1.256;2024-01-16T12:28:04;100081.77;;;9.98;31.59
62055;BME280;48653;51.742;-1.256;2024-01-16T12:30:30;100073.61;;;8.89;32.07
62055;BME280;48653;51.742;-1.256;2024-01-16T12:35:20;100058.98;;;7.52;33.33
62055;BME280;48653;51.742;-1.256;2024-01-16T12:37:42;100054.44;;;8.37;32.90
62055;BME280;48653;51.742;-1.256;2024-01-16T12:44:58;100039.89;;;8.25;33.72
62055;BME280;48653;51.742;-1.256;2024-01-16T12:47:23;100037.94;;;8.14;34.19
62055;BME280;48653;51.742;-1.256;2024-01-16T12:52:17;100028.47;;;7.61;34.38
62055;BME280;48653;51.742;-1.256;2024-01-16T12:54:39;100028.18;;;6.89;35.63
62055;BME280;48653;51.742;-1.256;2024-01-16T12:57:05;100027.51;;;7.52;35.38
62055;BME280;48653;51.742;-1.256;2024-01-16T12:59:29;100013.79;;;7.60;34.97
62055;BME280;48653;51.742;-1.256;2024-01-16T13:01:55;100005.92;;;8.12;34.56
62055;BME280;48653;51.742;-1.256;2024-01-16T13:04:20;100001.65;;;6.79;35.70
62055;BME280;48653;51.742;-1.256;2024-01-16T13:06:44;99996.64;;;7.31;35.12
62055;BME280;48653;51.742;-1.256;2024-01-16T13:09:17;99989.41;;;7.20;35.29
62055;BME280;48653;51.742;-1.256;2024-01-16T13:11:45;99988.87;;;7.62;35.55
62055;BME280;48653;51.742;-1.256;2024-01-16T13:14:01;99985.66;;;7.47;35.50
62055;BME280;48653;51.742;-1.256;2024-01-16T13:16:25;99981.43;;;7.76;34.67